createdAt,value
2019-01-16T00:01:55.808Z,5.60
2019-01-16T00:04:52.953Z,8.00
2019-01-16T00:07:53.127Z,6.47
2019-01-16T00:10:42.225Z,10.20
2019-01-16T00:13:21.811Z,6.30
2019-01-16T00:16:18.762Z,8.70
2019-01-16T00:19:01.877Z,6.13
2019-01-16T00:21:43.459Z,10.43
2019-01-16T00:24:31.552Z,4.60
2019-01-16T00:27:18.361Z,6.47
2019-01-16T00:29:58.666Z,3.90
2019-01-16T00:32:48.956Z,5.30
2019-01-16T00:35:27.603Z,4.70
2019-01-16T00:38:16.370Z,5.10
2019-01-16T00:41:05.481Z,4.73
2019-01-16T00:43:59.757Z,5.67
2019-01-16T00:46:46.309Z,4.47
2019-01-16T00:49:24.500Z,7.10
2019-01-16T00:52:04.743Z,6.10
2019-01-16T00:54:48.589Z,5.87
2019-01-16T00:57:39.672Z,5.40
2019-01-16T01:00:35.146Z,6.67
2019-01-16T01:03:18.445Z,8.90
2019-01-16T01:06:12.151Z,5.37
2019-01-16T01:09:02.206Z,4.63
2019-01-16T01:11:47.879Z,3.13
2019-01-16T01:14:34.714Z,5.57
2019-01-16T01:17:31.898Z,5.20
2019-01-16T01:20:21.743Z,4.50
2019-01-16T01:23:15.674Z,8.23
2019-01-16T01:26:15.803Z,4.40
2019-01-16T01:28:58.174Z,7.90
2019-01-16T01:31:42.490Z,4.93
2019-01-16T01:34:28.113Z,6.87
2019-01-16T01:37:19.248Z,5.20
2019-01-16T01:40:02.888Z,3.73
2019-01-16T01:42:54.135Z,3.67
2019-01-16T01:45:45.098Z,6.17
2019-01-16T01:48:39.765Z,8.60
2019-01-16T01:51:26.078Z,5.73
2019-01-16T01:54:14.105Z,6.67
2019-01-16T01:56:54.945Z,7.17
2019-01-16T01:59:52.869Z,6.63
2019-01-16T02:02:40.962Z,6.37
2019-01-16T02:05:44.537Z,7.43
2019-01-16T02:08:39.772Z,6.33
2019-01-16T02:11:29.629Z,4.97
2019-01-16T02:14:26.652Z,4.23
2019-01-16T02:17:03.257Z,4.07
2019-01-16T02:20:06.436Z,5.17
2019-01-16T02:22:49.552Z,4.77
2019-01-16T02:25:37.654Z,6.23
2019-01-16T02:28:13.360Z,7.77
2019-01-16T02:31:03.230Z,6.87
2019-01-16T02:34:09.869Z,7.57
2019-01-16T02:37:01.748Z,6.60
2019-01-16T02:39:49.745Z,5.20
2019-01-16T02:42:38.752Z,4.33
2019-01-16T02:45:25.809Z,4.80
2019-01-16T02:48:22.742Z,6.70
2019-01-16T02:51:20.060Z,6.80
2019-01-16T02:54:08.162Z,6.03
2019-01-16T02:56:48.257Z,5.07
2019-01-16T02:59:35.011Z,4.80
2019-01-16T03:02:10.584Z,6.17
2019-01-16T03:04:55.162Z,3.63
2019-01-16T03:07:35.626Z,6.23
2019-01-16T03:10:27.604Z,4.30
2019-01-16T03:13:21.512Z,5.30
2019-01-16T03:16:03.927Z,6.47
2019-01-16T03:19:07.373Z,5.13
2019-01-16T03:22:01.241Z,5.77
2019-01-16T03:24:48.217Z,5.70
2019-01-16T03:27:30.220Z,7.30
2019-01-16T03:30:20.732Z,5.87
2019-01-16T03:33:11.565Z,5.43
2019-01-16T03:35:59.658Z,6.93
2019-01-16T03:38:50.982Z,4.73
2019-01-16T03:41:39.064Z,5.10
2019-01-16T03:44:27.794Z,10.03
2019-01-16T03:47:25.129Z,5.43
2019-01-16T03:50:13.216Z,6.77
2019-01-16T03:52:53.641Z,8.70
2019-01-16T03:55:35.845Z,6.47
2019-01-16T03:58:17.420Z,6.83
2019-01-16T04:01:03.002Z,7.17
2019-01-16T04:03:49.935Z,6.30
2019-01-16T04:06:36.928Z,6.90
2019-01-16T04:09:25.619Z,4.23
2019-01-16T04:12:22.967Z,9.13
2019-01-16T04:15:14.354Z,6.43
2019-01-16T04:18:01.224Z,8.97
2019-01-16T04:20:48.154Z,5.83
2019-01-16T04:23:27.836Z,8.43
2019-01-16T04:26:19.193Z,7.30
2019-01-16T04:29:05.844Z,7.93
2019-01-16T04:32:03.029Z,6.20
2019-01-16T04:34:56.883Z,9.47
2019-01-16T04:37:40.944Z,7.73
2019-01-16T04:40:29.341Z,8.60
2019-01-16T04:43:16.278Z,8.37
2019-01-16T04:46:08.435Z,7.50
2019-01-16T04:48:43.845Z,7.77
2019-01-16T04:51:50.012Z,7.90
2019-01-16T04:54:26.185Z,6.27
2019-01-16T04:57:09.418Z,8.37
2019-01-16T04:59:57.981Z,7.43
2019-01-16T05:03:01.244Z,7.43
2019-01-16T05:05:55.092Z,6.20
2019-01-16T05:08:42.013Z,7.33
2019-01-16T05:11:19.139Z,8.07
2019-01-16T05:14:06.380Z,8.50
2019-01-16T05:16:54.395Z,6.50
2019-01-16T05:19:52.703Z,10.73
2019-01-16T05:22:28.710Z,9.50
2019-01-16T05:25:22.563Z,8.80
2019-01-16T05:28:25.707Z,7.23
2019-01-16T05:31:11.540Z,13.13
2019-01-16T05:33:48.767Z,7.87
2019-01-16T05:36:41.365Z,7.20
2019-01-16T05:39:47.909Z,9.50
2019-01-16T05:42:30.997Z,8.70
2019-01-16T05:45:19.085Z,9.97
2019-01-16T05:48:01.780Z,6.37
2019-01-16T05:50:48.666Z,11.50
2019-01-16T05:53:39.906Z,7.60
2019-01-16T05:56:24.948Z,8.37
2019-01-16T05:59:11.676Z,8.87
2019-01-16T06:01:59.085Z,8.33
2019-01-16T06:04:47.437Z,10.27
2019-01-16T06:07:53.874Z,8.27
2019-01-16T06:10:47.992Z,10.60
2019-01-16T06:13:28.312Z,8.07
2019-01-16T06:16:15.065Z,7.50
2019-01-16T06:19:03.178Z,7.57
2019-01-16T06:21:49.870Z,8.33
2019-01-16T06:24:47.045Z,8.57
2019-01-16T06:27:44.264Z,11.67
2019-01-16T06:30:32.788Z,7.33
2019-01-16T06:33:13.718Z,10.03
2019-01-16T06:36:01.392Z,7.80
2019-01-16T06:38:49.493Z,9.63
2019-01-16T06:41:31.301Z,8.90
2019-01-16T06:44:22.616Z,8.50
2019-01-16T06:47:13.018Z,6.50
2019-01-16T06:50:03.800Z,7.87
2019-01-16T06:52:54.926Z,8.10
2019-01-16T06:55:36.699Z,12.00
2019-01-16T06:58:33.762Z,6.30
2019-01-16T07:01:21.196Z,10.73
2019-01-16T07:04:12.598Z,10.07
2019-01-16T07:07:10.101Z,10.13
2019-01-16T07:10:03.981Z,8.73
2019-01-16T07:13:10.429Z,13.67
2019-01-16T07:16:03.149Z,9.37
2019-01-16T07:18:49.817Z,11.43
2019-01-16T07:21:33.594Z,10.40
2019-01-16T07:24:20.529Z,9.23
2019-01-16T07:27:11.617Z,10.13
2019-01-16T07:30:11.614Z,9.60
2019-01-16T07:33:09.119Z,6.57
2019-01-16T07:35:56.252Z,12.63
2019-01-16T07:38:43.210Z,10.90
2019-01-16T07:41:37.341Z,9.87
2019-01-16T07:44:23.816Z,10.00
2019-01-16T07:47:17.272Z,13.27
2019-01-16T07:50:04.032Z,11.07
2019-01-16T07:52:41.506Z,10.47
2019-01-16T07:55:32.499Z,13.87
2019-01-16T07:58:26.497Z,12.67
2019-01-16T08:01:20.761Z,15.80
2019-01-16T08:04:21.048Z,11.13
2019-01-16T08:07:08.155Z,10.40
2019-01-16T08:09:44.676Z,11.13
2019-01-16T08:12:42.282Z,13.57
2019-01-16T08:15:22.273Z,12.43
2019-01-16T08:18:17.904Z,8.17
2019-01-16T08:21:15.450Z,12.53
2019-01-16T08:23:52.341Z,8.00
2019-01-16T08:26:41.665Z,8.70
2019-01-16T08:29:39.479Z,9.23
2019-01-16T08:32:15.715Z,9.03
2019-01-16T08:34:58.050Z,11.67
2019-01-16T08:37:52.168Z,10.10
2019-01-16T08:40:54.119Z,11.93
2019-01-16T08:43:54.021Z,11.13
2019-01-16T08:46:40.662Z,12.23
2019-01-16T08:49:38.043Z,12.33
2019-01-16T08:52:15.337Z,9.93
2019-01-16T08:55:02.201Z,10.87
2019-01-16T08:57:52.230Z,7.70
2019-01-16T09:00:36.185Z,7.83
2019-01-16T09:03:23.074Z,8.40
2019-01-16T09:06:17.733Z,9.87
2019-01-16T09:09:12.292Z,12.33
2019-01-16T09:11:51.133Z,11.33
2019-01-16T09:14:38.553Z,12.43
2019-01-16T09:17:18.098Z,13.13
2019-01-16T09:20:08.748Z,9.23
2019-01-16T09:22:56.832Z,8.70
2019-01-16T09:25:34.605Z,15.07
2019-01-16T09:28:20.499Z,12.20
2019-01-16T09:31:14.666Z,9.97
2019-01-16T09:34:10.292Z,9.53
2019-01-16T09:36:47.494Z,9.73
2019-01-16T09:39:32.437Z,11.00
2019-01-16T09:42:13.123Z,12.40
2019-01-16T09:44:59.968Z,11.37
2019-01-16T09:47:39.127Z,8.63
2019-01-16T09:50:47.845Z,9.37
2019-01-16T09:53:48.526Z,12.33
2019-01-16T09:56:37.185Z,12.30
2019-01-16T09:59:34.279Z,8.70
2019-01-16T10:02:22.283Z,11.53
2019-01-16T10:05:09.025Z,8.50
2019-01-16T10:07:55.947Z,7.63
2019-01-16T10:10:41.040Z,10.43
2019-01-16T10:13:35.753Z,10.60
2019-01-16T10:16:15.792Z,9.60
2019-01-16T10:19:04.165Z,11.87
2019-01-16T10:21:55.611Z,11.60
2019-01-16T10:24:40.166Z,11.23
2019-01-16T10:27:32.877Z,9.73
2019-01-16T10:30:18.871Z,8.67
2019-01-16T10:33:19.029Z,8.63
2019-01-16T10:36:25.817Z,7.70
2019-01-16T10:39:20.732Z,8.73
2019-01-16T10:42:24.113Z,9.00
2019-01-16T10:45:08.623Z,7.90
2019-01-16T10:47:53.368Z,8.67
2019-01-16T10:50:47.644Z,9.50
2019-01-16T10:53:33.032Z,6.37
2019-01-16T10:56:19.652Z,7.57
2019-01-16T10:59:06.512Z,9.00
2019-01-16T11:01:57.837Z,8.47
2019-01-16T11:04:41.285Z,9.00
2019-01-16T11:07:29.377Z,8.13
2019-01-16T11:10:16.940Z,6.13
2019-01-16T11:13:04.936Z,7.03
2019-01-16T11:16:06.353Z,6.80
2019-01-16T11:18:49.478Z,8.33
2019-01-16T11:21:36.403Z,8.57
2019-01-16T11:24:42.757Z,13.70
2019-01-16T11:27:29.259Z,7.57
2019-01-16T11:30:16.079Z,7.43
2019-01-16T11:33:02.707Z,6.30
2019-01-16T11:35:43.844Z,6.80
2019-01-16T11:38:50.225Z,9.17
2019-01-16T11:41:28.736Z,9.13
2019-01-16T11:44:32.148Z,7.43
2019-01-16T11:47:11.889Z,6.13
2019-01-16T11:49:58.483Z,15.87
2019-01-16T11:52:45.474Z,8.23
2019-01-16T11:55:33.634Z,7.63
2019-01-16T11:58:24.486Z,12.17
2019-01-16T12:01:11.252Z,8.33
2019-01-16T12:03:49.265Z,8.67
2019-01-16T12:06:40.362Z,7.10
2019-01-16T12:09:42.246Z,9.57
2019-01-16T12:12:33.502Z,7.10
2019-01-16T12:15:20.562Z,8.20
2019-01-16T12:18:07.451Z,9.83
2019-01-16T12:21:13.882Z,10.60
2019-01-16T12:24:00.410Z,10.40
2019-01-16T12:26:47.444Z,8.00
2019-01-16T12:29:26.800Z,10.07
2019-01-16T12:32:24.264Z,8.93
2019-01-16T12:35:16.397Z,8.93
2019-01-16T12:38:16.721Z,9.37
2019-01-16T12:41:00.032Z,6.40
2019-01-16T12:44:02.112Z,8.23
2019-01-16T12:47:05.783Z,7.17
2019-01-16T12:49:52.685Z,8.00
2019-01-16T12:52:39.682Z,5.43
2019-01-16T12:55:23.376Z,7.67
2019-01-16T12:58:04.357Z,8.53
2019-01-16T13:01:04.761Z,9.03
2019-01-16T13:03:53.748Z,7.20
2019-01-16T13:06:47.820Z,8.50
2019-01-16T13:09:34.462Z,7.00
2019-01-16T13:12:15.288Z,8.83
2019-01-16T13:15:01.930Z,8.83
2019-01-16T13:17:53.578Z,6.90
2019-01-16T13:20:57.044Z,10.07
2019-01-16T13:23:43.732Z,7.13
2019-01-16T13:26:34.136Z,9.13
2019-01-16T13:29:25.239Z,9.37
2019-01-16T13:32:13.317Z,10.50
2019-01-16T13:35:16.556Z,7.37
2019-01-16T13:38:10.695Z,8.17
2019-01-16T13:40:57.461Z,12.37
2019-01-16T13:43:35.374Z,11.43
2019-01-16T13:46:18.925Z,10.17
2019-01-16T13:49:09.776Z,7.23
2019-01-16T13:51:56.842Z,8.90
2019-01-16T13:54:57.233Z,9.73
2019-01-16T13:57:57.265Z,11.53
2019-01-16T14:00:48.614Z,7.77
2019-01-16T14:03:24.437Z,18.63
2019-01-16T14:06:05.961Z,7.10
2019-01-16T14:09:00.300Z,6.27
2019-01-16T14:11:48.458Z,7.87
2019-01-16T14:14:35.380Z,12.47
2019-01-16T14:17:13.490Z,7.90
2019-01-16T14:20:16.702Z,8.77
2019-01-16T14:23:04.784Z,7.00
2019-01-16T14:25:47.925Z,6.90
2019-01-16T14:28:25.754Z,8.10
2019-01-16T14:31:13.834Z,8.40
2019-01-16T14:34:13.796Z,6.63
2019-01-16T14:37:00.533Z,9.90
2019-01-16T14:39:54.837Z,10.73
2019-01-16T14:42:45.875Z,9.03
2019-01-16T14:45:34.044Z,7.47
2019-01-16T14:48:14.403Z,8.17
2019-01-16T14:50:53.809Z,5.00
2019-01-16T14:53:42.603Z,7.80
2019-01-16T14:56:30.026Z,6.63
2019-01-16T14:59:21.105Z,6.83
2019-01-16T15:02:07.886Z,5.40
2019-01-16T15:04:55.973Z,7.00
2019-01-16T15:07:51.281Z,9.20
2019-01-16T15:10:38.391Z,5.67
2019-01-16T15:13:18.457Z,5.97
2019-01-16T15:15:57.473Z,5.63
2019-01-16T15:18:45.103Z,7.20
2019-01-16T15:21:33.200Z,7.77
2019-01-16T15:24:25.312Z,8.83
2019-01-16T15:27:11.053Z,7.27
2019-01-16T15:29:56.146Z,6.53
2019-01-16T15:32:45.572Z,6.63
2019-01-16T15:35:24.248Z,6.10
2019-01-16T15:38:18.262Z,5.80
2019-01-16T15:41:04.916Z,4.07
2019-01-16T15:43:53.036Z,6.43
2019-01-16T15:46:31.661Z,6.93
2019-01-16T15:49:12.760Z,6.60
2019-01-16T15:52:13.089Z,10.07
2019-01-16T15:55:05.702Z,8.57
2019-01-16T15:57:41.760Z,6.40
2019-01-16T16:00:30.125Z,7.20
2019-01-16T16:03:16.970Z,7.70
2019-01-16T16:06:04.006Z,6.03
2019-01-16T16:08:55.086Z,4.17
2019-01-16T16:11:55.499Z,7.27
2019-01-16T16:14:49.439Z,7.80
2019-01-16T16:17:30.132Z,9.43
2019-01-16T16:20:17.027Z,10.27
2019-01-16T16:23:14.720Z,8.90
2019-01-16T16:26:12.106Z,8.73
2019-01-16T16:28:50.485Z,10.90
2019-01-16T16:31:37.402Z,8.37
2019-01-16T16:34:37.987Z,11.33
2019-01-16T16:37:24.985Z,8.30
2019-01-16T16:40:28.564Z,6.63
2019-01-16T16:43:07.061Z,10.47
2019-01-16T16:45:55.133Z,10.70
2019-01-16T16:48:42.170Z,9.60
2019-01-16T16:51:24.161Z,15.03
2019-01-16T16:54:11.342Z,12.33
2019-01-16T16:56:55.057Z,12.47
2019-01-16T16:59:55.334Z,11.47
2019-01-16T17:02:38.416Z,15.13
2019-01-16T17:05:28.725Z,27.53
2019-01-16T17:08:19.792Z,74.53
2019-01-16T17:11:19.933Z,32.10
2019-01-16T17:14:06.057Z,24.67
2019-01-16T17:16:58.470Z,13.63
2019-01-16T17:20:01.998Z,86.00
2019-01-16T17:23:02.189Z,69.07
2019-01-16T17:25:38.866Z,125.00
2019-01-16T17:28:27.711Z,93.17
2019-01-16T17:31:14.725Z,38.97
2019-01-16T17:34:09.358Z,66.70
2019-01-16T17:37:03.365Z,34.27
2019-01-16T17:39:46.871Z,41.10
2019-01-16T17:42:38.147Z,57.60
2019-01-16T17:45:36.258Z,29.77
2019-01-16T17:48:23.761Z,58.37
2019-01-16T17:51:14.261Z,10.97
2019-01-16T17:54:15.365Z,19.00
2019-01-16T17:57:12.781Z,27.83
2019-01-16T18:00:01.176Z,12.70
2019-01-16T18:02:51.763Z,13.67
2019-01-16T18:05:29.629Z,42.83
2019-01-16T18:08:17.098Z,14.67
2019-01-16T18:11:11.677Z,10.87
2019-01-16T18:14:12.448Z,10.70
2019-01-16T18:17:13.043Z,51.50
2019-01-16T18:20:02.660Z,8.87
2019-01-16T18:22:51.782Z,12.60
2019-01-16T18:25:29.189Z,33.77
2019-01-16T18:28:11.610Z,38.17
2019-01-16T18:31:07.086Z,6.70
2019-01-16T18:33:44.241Z,5.47
2019-01-16T18:36:38.895Z,7.33
2019-01-16T18:39:37.768Z,5.53
2019-01-16T18:42:35.102Z,8.47
2019-01-16T18:45:15.928Z,9.43
2019-01-16T18:48:19.755Z,10.63
2019-01-16T18:51:23.646Z,8.20
2019-01-16T18:54:21.260Z,7.00
2019-01-16T18:57:02.874Z,9.97
2019-01-16T18:59:39.093Z,8.53
2019-01-16T19:02:30.657Z,7.30
2019-01-16T19:05:24.963Z,5.93
2019-01-16T19:08:12.039Z,7.57
2019-01-16T19:11:14.075Z,12.03
2019-01-16T19:13:58.577Z,8.23
2019-01-16T19:16:46.082Z,5.70
2019-01-16T19:19:33.401Z,7.80
2019-01-16T19:22:28.287Z,8.20
2019-01-16T19:25:22.996Z,5.87
2019-01-16T19:28:17.215Z,19.47
2019-01-16T19:31:16.341Z,5.13
2019-01-16T19:34:07.610Z,6.13
2019-01-16T19:36:54.883Z,6.20
2019-01-16T19:39:47.076Z,7.77
2019-01-16T19:42:28.325Z,8.13
2019-01-16T19:45:35.250Z,71.63
2019-01-16T19:48:21.121Z,8.77
2019-01-16T19:51:08.139Z,8.27
2019-01-16T19:54:01.360Z,10.03
2019-01-16T19:56:55.791Z,6.27
2019-01-16T19:59:43.140Z,9.00
2019-01-16T20:02:30.407Z,7.87
2019-01-16T20:05:24.748Z,9.10
2019-01-16T20:08:21.537Z,8.93
2019-01-16T20:11:04.397Z,6.07
2019-01-16T20:13:55.229Z,7.00
2019-01-16T20:16:52.788Z,8.43
2019-01-16T20:19:38.347Z,7.23
2019-01-16T20:22:25.686Z,8.50
2019-01-16T20:25:27.873Z,8.47
2019-01-16T20:28:15.526Z,16.47
2019-01-16T20:31:07.304Z,7.57
2019-01-16T20:33:54.858Z,8.30
2019-01-16T20:36:47.549Z,7.27
2019-01-16T20:39:34.026Z,5.77
2019-01-16T20:42:28.634Z,8.07
2019-01-16T20:45:15.801Z,7.23
2019-01-16T20:48:06.849Z,7.10
2019-01-16T20:50:48.991Z,7.80
2019-01-16T20:53:37.436Z,12.43
2019-01-16T20:56:22.361Z,13.80
2019-01-16T20:59:13.907Z,6.87
2019-01-16T21:02:02.267Z,7.30
2019-01-16T21:05:06.046Z,6.47
2019-01-16T21:07:55.431Z,9.30
2019-01-16T21:10:53.260Z,6.37
2019-01-16T21:13:44.616Z,6.87
2019-01-16T21:16:32.683Z,7.63
2019-01-16T21:19:20.260Z,8.03
2019-01-16T21:22:17.892Z,8.50
2019-01-16T21:25:01.666Z,6.03
2019-01-16T21:27:56.023Z,6.63
2019-01-16T21:30:43.365Z,7.27
2019-01-16T21:33:39.222Z,8.10
2019-01-16T21:36:46.231Z,8.73
2019-01-16T21:39:33.553Z,8.53
2019-01-16T21:42:37.387Z,8.83
2019-01-16T21:45:35.162Z,7.90
2019-01-16T21:48:26.360Z,8.37
2019-01-16T21:51:20.458Z,7.80
2019-01-16T21:53:59.419Z,7.27
2019-01-16T21:56:39.771Z,8.77
2019-01-16T21:59:23.378Z,7.23
2019-01-16T22:02:17.831Z,7.63
2019-01-16T22:05:11.054Z,5.37
2019-01-16T22:07:47.628Z,7.83
2019-01-16T22:10:48.372Z,5.93
2019-01-16T22:13:39.960Z,8.10
2019-01-16T22:16:37.598Z,5.90
2019-01-16T22:19:31.995Z,5.60
2019-01-16T22:22:20.467Z,7.40
2019-01-16T22:25:01.697Z,7.53
2019-01-16T22:27:43.843Z,9.73
2019-01-16T22:30:42.442Z,9.00
2019-01-16T22:33:36.652Z,7.33
2019-01-16T22:36:31.727Z,7.47
2019-01-16T22:39:18.964Z,12.03
2019-01-16T22:42:10.412Z,6.20
2019-01-16T22:45:01.444Z,11.67
2019-01-16T22:47:55.898Z,10.27
2019-01-16T22:50:53.641Z,6.73
2019-01-16T22:53:45.126Z,9.37
2019-01-16T22:56:39.558Z,12.07
2019-01-16T22:59:35.347Z,8.40
2019-01-16T23:02:42.747Z,8.60
2019-01-16T23:05:29.909Z,9.13
2019-01-16T23:08:18.321Z,9.70
2019-01-16T23:11:09.420Z,9.70
2019-01-16T23:14:01.418Z,10.47
2019-01-16T23:16:55.591Z,11.13
2019-01-16T23:19:38.517Z,10.97
2019-01-16T23:22:34.611Z,9.93
2019-01-16T23:25:14.420Z,9.97
2019-01-16T23:28:20.653Z,10.27
2019-01-16T23:31:12.048Z,10.07
2019-01-16T23:34:15.799Z,8.90
2019-01-16T23:37:17.410Z,8.77
2019-01-16T23:40:11.638Z,6.77
2019-01-16T23:43:00.048Z,7.70
2019-01-16T23:45:48.375Z,9.53
2019-01-16T23:48:38.573Z,10.60
2019-01-16T23:51:27.120Z,10.40
2019-01-16T23:54:04.647Z,7.83
2019-01-16T23:56:46.997Z,9.10
2019-01-16T23:59:36.513Z,11.47
